createdAt,value
2018-05-04T00:01:51.524Z,67.50
2018-05-04T00:04:20.273Z,67.40
2018-05-04T00:06:47.638Z,67.40
2018-05-04T00:09:14.956Z,67.40
2018-05-04T00:11:42.316Z,67.50
2018-05-04T00:14:09.544Z,67.50
2018-05-04T00:16:37.556Z,67.40
2018-05-04T00:19:04.773Z,67.40
2018-05-04T00:21:31.994Z,67.50
2018-05-04T00:23:59.980Z,67.60
2018-05-04T00:26:27.960Z,67.60
2018-05-04T00:28:55.152Z,67.60
2018-05-04T00:31:22.344Z,67.60
2018-05-04T00:33:50.320Z,67.60
2018-05-04T00:36:17.567Z,67.60
2018-05-04T00:38:45.663Z,67.70
2018-05-04T00:41:12.994Z,67.70
2018-05-04T00:43:40.337Z,67.80
2018-05-04T00:46:07.722Z,68.00
2018-05-04T00:48:35.053Z,68.00
2018-05-04T00:51:02.372Z,67.90
2018-05-04T00:53:30.530Z,67.70
2018-05-04T00:55:57.899Z,67.70
2018-05-04T00:58:25.992Z,67.60
2018-05-04T01:00:53.457Z,67.60
2018-05-04T01:03:21.439Z,67.80
2018-05-04T01:05:48.658Z,67.70
2018-05-04T01:08:16.666Z,67.80
2018-05-04T01:10:43.891Z,67.80
2018-05-04T01:13:11.895Z,67.90
2018-05-04T01:15:39.166Z,67.80
2018-05-04T01:18:06.386Z,67.90
2018-05-04T01:20:33.590Z,68.00
2018-05-04T01:23:00.880Z,68.00
2018-05-04T01:25:28.080Z,68.30
2018-05-04T01:27:55.305Z,68.00
2018-05-04T01:30:22.536Z,68.10
2018-05-04T01:32:49.748Z,68.20
2018-05-04T01:35:16.928Z,68.00
2018-05-04T01:37:44.164Z,68.00
2018-05-04T01:40:12.128Z,68.00
2018-05-04T01:42:40.114Z,68.10
2018-05-04T01:45:07.305Z,68.00
2018-05-04T01:47:34.492Z,68.00
2018-05-04T01:50:02.468Z,68.10
2018-05-04T01:52:30.441Z,68.00
2018-05-04T01:54:57.675Z,68.00
2018-05-04T01:57:25.646Z,68.10
2018-05-04T01:59:53.609Z,68.10
2018-05-04T02:02:21.597Z,68.10
2018-05-04T02:04:48.924Z,68.10
2018-05-04T02:07:16.141Z,68.10
2018-05-04T02:09:43.371Z,68.10
2018-05-04T02:12:10.601Z,68.10
2018-05-04T02:14:37.828Z,68.10
2018-05-04T02:17:05.823Z,68.90
2018-05-04T02:19:33.067Z,68.10
2018-05-04T02:22:00.291Z,68.20
2018-05-04T02:24:27.525Z,68.10
2018-05-04T02:26:54.739Z,68.10
2018-05-04T02:29:21.973Z,68.10
2018-05-04T02:31:49.185Z,68.10
2018-05-04T02:34:16.401Z,68.10
2018-05-04T02:36:43.612Z,68.10
2018-05-04T02:39:11.608Z,68.00
2018-05-04T02:41:38.833Z,68.00
2018-05-04T02:44:06.808Z,68.00
2018-05-04T02:46:34.000Z,68.00
2018-05-04T02:49:01.186Z,68.00
2018-05-04T02:51:29.233Z,68.60
2018-05-04T02:53:56.441Z,67.90
2018-05-04T02:56:23.659Z,67.90
2018-05-04T02:58:51.626Z,67.90
2018-05-04T03:01:19.618Z,67.90
2018-05-04T03:03:46.833Z,67.90
2018-05-04T03:06:14.115Z,67.80
2018-05-04T03:08:41.344Z,67.90
2018-05-04T03:11:08.581Z,67.80
2018-05-04T03:13:35.792Z,67.90
2018-05-04T03:16:03.007Z,67.80
2018-05-04T03:18:31.003Z,67.80
2018-05-04T03:20:58.203Z,67.80
2018-05-04T03:23:25.409Z,67.70
2018-05-04T03:25:52.676Z,67.70
2018-05-04T03:28:19.937Z,67.80
2018-05-04T03:30:47.165Z,67.80
2018-05-04T03:33:14.407Z,67.80
2018-05-04T03:35:41.617Z,67.80
2018-05-04T03:38:08.830Z,67.80
2018-05-04T03:40:36.029Z,67.80
2018-05-04T03:43:04.033Z,67.90
2018-05-04T03:45:31.240Z,67.80
2018-05-04T03:47:59.232Z,67.80
2018-05-04T03:50:26.416Z,67.80
2018-05-04T03:52:53.609Z,67.80
2018-05-04T03:55:21.585Z,67.80
2018-05-04T03:57:55.541Z,67.80
2018-05-04T04:00:28.551Z,67.80
2018-05-04T04:03:01.641Z,67.90
2018-05-04T04:05:28.849Z,67.90
2018-05-04T04:07:56.064Z,67.90
2018-05-04T04:10:24.100Z,68.00
2018-05-04T04:12:51.303Z,67.90
2018-05-04T04:15:18.581Z,68.60
2018-05-04T04:17:45.793Z,68.00
2018-05-04T04:20:13.757Z,68.00
2018-05-04T04:22:41.735Z,68.00
2018-05-04T04:25:08.963Z,68.00
2018-05-04T04:27:36.946Z,68.10
2018-05-04T04:30:04.923Z,68.10
2018-05-04T04:32:32.134Z,68.10
2018-05-04T04:34:59.361Z,68.10
2018-05-04T04:37:26.575Z,68.10
2018-05-04T04:39:53.785Z,68.10
2018-05-04T04:42:20.972Z,68.20
2018-05-04T04:44:48.182Z,68.20
2018-05-04T04:47:15.407Z,68.30
2018-05-04T04:49:42.610Z,68.30
2018-05-04T04:52:10.585Z,68.40
2018-05-04T04:54:38.580Z,68.40
2018-05-04T04:57:05.773Z,68.40
2018-05-04T04:59:32.970Z,68.50
2018-05-04T05:02:00.176Z,68.50
2018-05-04T05:04:27.360Z,68.50
2018-05-04T05:06:54.599Z,68.60
2018-05-04T05:09:22.577Z,68.60
2018-05-04T05:11:49.793Z,68.60
2018-05-04T05:14:17.011Z,68.70
2018-05-04T05:16:44.216Z,68.70
2018-05-04T05:19:12.179Z,68.90
2018-05-04T05:21:40.163Z,68.90
2018-05-04T05:24:07.388Z,68.90
2018-05-04T05:26:35.396Z,68.90
2018-05-04T05:29:02.592Z,68.90
2018-05-04T05:31:29.823Z,68.90
2018-05-04T05:33:57.036Z,69.00
2018-05-04T05:36:24.228Z,69.00
2018-05-04T05:38:51.462Z,69.00
2018-05-04T05:41:18.687Z,69.10
2018-05-04T05:43:45.908Z,69.20
2018-05-04T05:46:13.911Z,69.40
2018-05-04T05:48:41.152Z,69.30
2018-05-04T05:51:08.353Z,69.40
2018-05-04T05:53:35.603Z,69.40
2018-05-04T05:56:02.854Z,69.40
2018-05-04T05:58:30.041Z,69.50
2018-05-04T06:00:58.004Z,69.60
2018-05-04T06:03:25.975Z,69.60
2018-05-04T06:05:53.994Z,70.30
2018-05-04T06:08:21.191Z,69.50
2018-05-04T06:10:49.144Z,69.70
2018-05-04T06:13:16.365Z,69.70
2018-05-04T06:15:44.361Z,69.60
2018-05-04T06:18:11.554Z,69.60
2018-05-04T06:20:38.763Z,69.60
2018-05-04T06:23:05.965Z,69.60
2018-05-04T06:25:33.201Z,69.60
2018-05-04T06:28:00.394Z,69.50
2018-05-04T06:30:27.627Z,69.50
2018-05-04T06:32:54.869Z,69.40
2018-05-04T06:35:22.083Z,69.50
2018-05-04T06:37:50.066Z,69.40
2018-05-04T06:40:17.304Z,69.40
2018-05-04T06:42:45.267Z,69.40
2018-05-04T06:45:13.227Z,69.40
2018-05-04T06:47:41.199Z,70.00
2018-05-04T06:50:09.178Z,69.20
2018-05-04T06:52:37.143Z,69.20
2018-05-04T06:55:05.129Z,69.10
2018-05-04T06:57:32.379Z,69.10
2018-05-04T06:59:59.590Z,69.10
2018-05-04T07:02:26.796Z,69.00
2018-05-04T07:04:54.086Z,69.00
2018-05-04T07:07:21.308Z,69.00
2018-05-04T07:09:48.613Z,69.00
2018-05-04T07:12:16.630Z,69.00
2018-05-04T07:14:43.890Z,69.00
2018-05-04T07:17:11.141Z,69.00
2018-05-04T07:19:38.360Z,69.00
2018-05-04T07:22:05.622Z,69.10
2018-05-04T07:24:32.911Z,69.10
2018-05-04T07:27:00.254Z,69.20
2018-05-04T07:29:27.480Z,69.20
2018-05-04T07:31:54.723Z,69.20
2018-05-04T07:34:21.975Z,69.20
2018-05-04T07:36:49.218Z,69.20
2018-05-04T07:39:16.452Z,69.30
2018-05-04T07:41:44.539Z,69.50
2018-05-04T07:44:11.833Z,69.40
2018-05-04T07:46:39.070Z,69.60
2018-05-04T07:49:06.330Z,69.70
2018-05-04T07:51:33.568Z,69.90
2018-05-04T07:54:00.832Z,70.10
2018-05-04T07:56:33.923Z,70.20
2018-05-04T07:59:01.186Z,70.40
2018-05-04T08:01:28.474Z,70.50
2018-05-04T08:03:55.793Z,70.40
2018-05-04T08:06:23.059Z,70.20
2018-05-04T08:08:51.069Z,70.10
2018-05-04T08:11:18.340Z,70.00
2018-05-04T08:13:45.595Z,70.10
2018-05-04T08:16:12.822Z,70.00
2018-05-04T08:18:40.075Z,70.00
2018-05-04T08:21:07.337Z,70.00
2018-05-04T08:23:34.558Z,70.00
2018-05-04T08:26:01.804Z,70.10
2018-05-04T08:28:29.057Z,70.00
2018-05-04T08:30:56.305Z,70.00
2018-05-04T08:33:24.331Z,70.40
2018-05-04T08:35:51.590Z,70.30
2018-05-04T08:38:18.832Z,70.50
2018-05-04T08:40:46.134Z,70.40
2018-05-04T08:43:13.460Z,70.40
2018-05-04T08:45:40.650Z,70.30
2018-05-04T08:48:07.898Z,70.10
2018-05-04T08:50:35.124Z,70.00
2018-05-04T08:53:03.130Z,69.70
2018-05-04T08:55:30.381Z,69.60
2018-05-04T08:57:57.604Z,69.40
2018-05-04T09:00:25.769Z,69.20
2018-05-04T09:02:53.787Z,69.00
2018-05-04T09:05:21.140Z,69.00
2018-05-04T09:07:49.117Z,68.60
2018-05-04T09:10:16.376Z,68.50
2018-05-04T09:12:43.689Z,68.50
2018-05-04T09:15:10.881Z,68.50
2018-05-04T09:17:38.125Z,68.30
2018-05-04T09:20:05.386Z,68.30
2018-05-04T09:22:32.651Z,68.30
2018-05-04T09:25:00.729Z,68.30
2018-05-04T09:27:28.728Z,68.10
2018-05-04T09:29:55.976Z,68.00
2018-05-04T09:32:23.216Z,67.80
2018-05-04T09:34:50.443Z,67.90
2018-05-04T09:37:18.536Z,68.50
2018-05-04T09:39:46.534Z,67.90
2018-05-04T09:42:13.840Z,68.00
2018-05-04T09:44:41.852Z,68.30
2018-05-04T09:47:09.073Z,68.40
2018-05-04T09:49:38.624Z,67.40
2018-05-04T09:52:06.783Z,67.40
2018-05-04T09:54:35.474Z,67.80
2018-05-04T09:57:02.747Z,68.60
2018-05-04T09:59:29.982Z,69.00
2018-05-04T10:01:57.223Z,69.30
2018-05-04T10:04:24.473Z,69.50
2018-05-04T10:06:51.724Z,69.20
2018-05-04T10:09:19.013Z,69.10
2018-05-04T10:11:46.240Z,67.90
2018-05-04T10:14:13.586Z,66.10
2018-05-04T10:16:40.813Z,65.20
2018-05-04T10:19:08.077Z,63.80
2018-05-04T10:21:35.316Z,62.80
2018-05-04T10:24:02.555Z,63.10
2018-05-04T10:26:29.827Z,62.40
2018-05-04T10:28:57.106Z,62.70
2018-05-04T10:31:24.354Z,62.90
2018-05-04T10:33:51.593Z,62.80
2018-05-04T10:36:18.831Z,62.60
2018-05-04T10:38:46.207Z,62.60
2018-05-04T10:41:13.454Z,62.90
2018-05-04T10:43:40.714Z,62.90
2018-05-04T10:46:07.967Z,62.50
2018-05-04T10:48:36.037Z,62.20
2018-05-04T10:51:03.326Z,62.20
2018-05-04T10:53:31.323Z,63.40
2018-05-04T10:55:58.592Z,63.40
2018-05-04T10:58:25.841Z,65.10
2018-05-04T11:00:53.075Z,65.70
2018-05-04T11:03:21.079Z,65.80
2018-05-04T11:05:48.343Z,65.80
2018-05-04T11:08:15.575Z,64.70
2018-05-04T11:10:42.804Z,64.30
2018-05-04T11:13:10.051Z,64.10
2018-05-04T11:15:37.320Z,63.70
2018-05-04T11:18:04.545Z,65.00
2018-05-04T11:20:31.846Z,65.60
2018-05-04T11:22:59.064Z,65.40
2018-05-04T11:25:26.275Z,65.30
2018-05-04T11:27:54.245Z,66.20
2018-05-04T11:30:22.233Z,67.00
2018-05-04T11:32:49.423Z,66.90
2018-05-04T11:35:16.617Z,65.40
2018-05-04T11:37:44.609Z,64.90
2018-05-04T11:40:11.829Z,64.90
2018-05-04T11:42:39.819Z,65.80
2018-05-04T11:45:07.037Z,65.70
2018-05-04T11:47:35.061Z,65.10
2018-05-04T11:50:02.268Z,65.10
2018-05-04T11:52:30.254Z,64.10
2018-05-04T11:54:57.557Z,64.10
2018-05-04T11:57:24.755Z,64.10
2018-05-04T11:59:51.965Z,63.50
2018-05-04T12:02:19.262Z,63.20
2018-05-04T12:04:46.424Z,63.90
2018-05-04T12:07:13.616Z,66.30
2018-05-04T12:09:40.817Z,66.70
2018-05-04T12:12:08.043Z,65.50
2018-05-04T12:14:36.051Z,64.60
2018-05-04T12:17:03.271Z,64.60
2018-05-04T12:19:30.486Z,63.50
2018-05-04T12:21:57.703Z,63.00
2018-05-04T12:24:24.941Z,62.70
2018-05-04T12:26:52.166Z,62.70
2018-05-04T12:29:19.363Z,62.50
2018-05-04T12:31:46.679Z,62.10
2018-05-04T12:34:14.068Z,62.00
2018-05-04T12:36:41.268Z,62.00
2018-05-04T12:39:09.259Z,61.80
2018-05-04T12:41:36.503Z,61.80
2018-05-04T12:44:03.727Z,61.70
2018-05-04T12:46:31.718Z,61.40
2018-05-04T12:48:58.952Z,61.40
2018-05-04T12:51:26.916Z,61.20
2018-05-04T12:53:54.890Z,61.00
2018-05-04T12:56:22.998Z,61.00
2018-05-04T12:58:50.245Z,61.00
2018-05-04T13:01:17.471Z,60.80
2018-05-04T13:03:45.461Z,60.70
2018-05-04T13:06:12.707Z,60.60
2018-05-04T13:08:39.905Z,60.60
2018-05-04T13:11:07.127Z,60.70
2018-05-04T13:13:34.359Z,60.70
2018-05-04T13:16:01.556Z,60.50
2018-05-04T13:18:28.748Z,60.50
2018-05-04T13:20:55.947Z,60.50
2018-05-04T13:23:23.264Z,60.50
2018-05-04T13:25:50.452Z,60.50
2018-05-04T13:28:17.669Z,60.50
2018-05-04T13:30:44.915Z,60.50
2018-05-04T13:33:12.135Z,60.50
2018-05-04T13:35:40.100Z,60.40
2018-05-04T13:38:08.069Z,60.20
2018-05-04T13:40:36.033Z,60.20
2018-05-04T13:43:04.063Z,60.10
2018-05-04T13:45:31.252Z,60.10
2018-05-04T13:47:59.375Z,60.10
2018-05-04T13:50:26.692Z,60.00
2018-05-04T13:52:54.111Z,59.80
2018-05-04T13:55:22.216Z,59.70
2018-05-04T13:57:49.566Z,59.70
2018-05-04T14:00:16.863Z,59.60
2018-05-04T14:02:44.259Z,59.60
2018-05-04T14:05:12.419Z,59.60
2018-05-04T14:07:40.569Z,59.50
2018-05-04T14:10:07.883Z,59.50
2018-05-04T14:12:35.181Z,59.40
2018-05-04T14:15:02.533Z,59.30
2018-05-04T14:17:29.879Z,59.10
2018-05-04T14:19:58.008Z,59.10
2018-05-04T14:22:25.310Z,59.10
2018-05-04T14:24:52.702Z,59.60
2018-05-04T14:27:20.195Z,59.00
2018-05-04T14:29:47.482Z,59.00
2018-05-04T14:32:14.810Z,58.90
2018-05-04T14:34:42.114Z,58.80
2018-05-04T14:37:09.437Z,58.90
2018-05-04T14:39:36.793Z,58.90
2018-05-04T14:42:04.151Z,59.20
2018-05-04T14:44:32.238Z,58.90
2018-05-04T14:47:00.321Z,58.90
2018-05-04T14:49:27.634Z,58.90
2018-05-04T14:51:54.953Z,58.90
2018-05-04T14:54:23.102Z,59.20
2018-05-04T14:56:50.423Z,59.10
2018-05-04T14:59:18.536Z,59.30
2018-05-04T15:01:45.919Z,59.30
2018-05-04T15:04:13.233Z,59.20
2018-05-04T15:06:40.576Z,59.10
2018-05-04T15:09:07.918Z,59.00
2018-05-04T15:11:35.982Z,58.90
2018-05-04T15:14:04.105Z,58.90
2018-05-04T15:16:31.507Z,58.80
2018-05-04T15:18:59.578Z,58.80
2018-05-04T15:21:27.726Z,58.70
2018-05-04T15:23:55.046Z,58.70
2018-05-04T15:26:22.383Z,58.70
2018-05-04T15:28:49.689Z,58.60
2018-05-04T15:31:17.070Z,58.70
2018-05-04T15:33:44.425Z,58.60
2018-05-04T15:36:12.498Z,58.60
2018-05-04T15:38:39.875Z,58.60
2018-05-04T15:41:07.220Z,58.60
2018-05-04T15:43:34.603Z,58.60
2018-05-04T15:46:01.969Z,58.60
2018-05-04T15:48:35.116Z,58.60
2018-05-04T15:51:08.104Z,58.50
2018-05-04T15:53:35.422Z,58.30
2018-05-04T15:56:03.498Z,58.30
2018-05-04T15:58:31.565Z,58.40
2018-05-04T16:00:59.763Z,58.30
2018-05-04T16:03:27.844Z,58.30
2018-05-04T16:05:55.158Z,58.30
2018-05-04T16:08:23.169Z,58.30
2018-05-04T16:10:50.408Z,58.30
2018-05-04T16:13:18.359Z,58.20
2018-05-04T16:15:46.335Z,58.30
2018-05-04T16:18:14.346Z,58.40
2018-05-04T16:20:41.548Z,58.40
2018-05-04T16:23:09.527Z,58.50
2018-05-04T16:25:37.530Z,58.40
2018-05-04T16:28:04.753Z,58.40
2018-05-04T16:30:32.095Z,58.30
2018-05-04T16:32:59.540Z,58.40
2018-05-04T16:35:27.618Z,58.30
2018-05-04T16:37:54.943Z,58.30
2018-05-04T16:40:22.260Z,58.20
2018-05-04T16:42:49.577Z,58.40
2018-05-04T16:45:16.901Z,58.50
2018-05-04T16:47:50.045Z,58.50
2018-05-04T16:50:17.372Z,58.50
2018-05-04T16:52:44.717Z,58.50
2018-05-04T16:55:12.873Z,58.60
2018-05-04T16:57:40.286Z,58.50
2018-05-04T17:00:07.662Z,58.60
2018-05-04T17:02:34.986Z,58.50
2018-05-04T17:05:02.324Z,58.60
2018-05-04T17:07:29.670Z,58.60
2018-05-04T17:09:57.034Z,58.60
2018-05-04T17:12:24.390Z,58.60
2018-05-04T17:14:51.724Z,58.70
2018-05-04T17:17:19.861Z,58.60
2018-05-04T17:19:47.197Z,58.60
2018-05-04T17:22:14.565Z,58.60
2018-05-04T17:24:41.901Z,58.60
2018-05-04T17:27:09.206Z,58.60
2018-05-04T17:29:36.548Z,58.60
2018-05-04T17:32:04.836Z,58.70
2018-05-04T17:34:32.172Z,58.70
2018-05-04T17:37:00.438Z,58.70
2018-05-04T17:39:27.771Z,58.70
2018-05-04T17:41:55.189Z,59.10
2018-05-04T17:44:22.554Z,58.90
2018-05-04T17:46:49.949Z,59.00
2018-05-04T17:49:17.365Z,59.10
2018-05-04T17:51:44.694Z,59.20
2018-05-04T17:54:12.025Z,59.30
2018-05-04T17:56:40.151Z,59.80
2018-05-04T17:59:07.469Z,59.80
2018-05-04T18:01:34.796Z,60.30
2018-05-04T18:04:02.914Z,61.40
2018-05-04T18:06:30.269Z,61.30
2018-05-04T18:08:57.586Z,61.50
2018-05-04T18:11:25.692Z,62.30
2018-05-04T18:13:53.070Z,62.30
2018-05-04T18:16:20.425Z,62.30
2018-05-04T18:18:47.774Z,62.10
2018-05-04T18:21:15.120Z,62.20
2018-05-04T18:23:42.577Z,62.20
2018-05-04T18:26:09.988Z,62.20
2018-05-04T18:28:37.393Z,62.20
2018-05-04T18:31:04.747Z,62.20
2018-05-04T18:33:32.903Z,62.30
2018-05-04T18:36:00.252Z,62.30
2018-05-04T18:38:27.652Z,62.50
2018-05-04T18:40:54.964Z,62.60
2018-05-04T18:43:22.285Z,62.60
2018-05-04T18:45:49.600Z,62.80
2018-05-04T18:48:16.964Z,62.90
2018-05-04T18:50:44.325Z,63.10
2018-05-04T18:53:12.436Z,63.30
2018-05-04T18:55:39.822Z,63.30
2018-05-04T18:58:07.172Z,63.20
2018-05-04T19:00:34.529Z,63.10
2018-05-04T19:03:07.511Z,63.10
2018-05-04T19:05:34.951Z,62.90
2018-05-04T19:08:02.372Z,63.10
2018-05-04T19:10:29.701Z,63.90
2018-05-04T19:12:57.121Z,63.20
2018-05-04T19:15:24.464Z,63.90
2018-05-04T19:17:51.810Z,63.30
2018-05-04T19:20:19.203Z,63.20
2018-05-04T19:22:46.613Z,63.30
2018-05-04T19:25:13.941Z,63.20
2018-05-04T19:27:42.056Z,63.20
2018-05-04T19:30:09.405Z,63.20
2018-05-04T19:32:36.714Z,63.20
2018-05-04T19:35:05.687Z,63.00
2018-05-04T19:37:33.631Z,63.00
2018-05-04T19:40:00.997Z,63.00
2018-05-04T19:42:28.346Z,63.00
2018-05-04T19:44:55.702Z,63.00
2018-05-04T19:47:23.080Z,63.20
2018-05-04T19:49:51.186Z,63.40
2018-05-04T19:52:18.510Z,63.40
2018-05-04T19:54:46.620Z,63.80
2018-05-04T19:57:13.930Z,63.70
2018-05-04T19:59:42.104Z,64.00
2018-05-04T20:02:10.223Z,64.10
2018-05-04T20:04:37.602Z,63.90
2018-05-04T20:07:04.945Z,64.00
2018-05-04T20:09:33.061Z,64.10
2018-05-04T20:12:01.211Z,64.10
2018-05-04T20:14:28.559Z,64.10
2018-05-04T20:16:55.878Z,64.40
2018-05-04T20:19:23.208Z,64.00
2018-05-04T20:21:50.602Z,64.00
2018-05-04T20:24:18.727Z,64.00
2018-05-04T20:26:46.051Z,64.00
2018-05-04T20:29:13.429Z,64.00
2018-05-04T20:31:41.531Z,63.80
2018-05-04T20:34:08.917Z,63.70
2018-05-04T20:36:36.231Z,63.60
2018-05-04T20:39:03.674Z,63.50
2018-05-04T20:41:31.173Z,63.40
2018-05-04T20:43:58.485Z,63.30
2018-05-04T20:46:25.822Z,63.20
2018-05-04T20:48:53.164Z,63.10
2018-05-04T20:51:21.266Z,63.00
2018-05-04T20:53:48.659Z,62.80
2018-05-04T20:56:16.758Z,62.80
2018-05-04T20:58:44.888Z,62.70
2018-05-04T21:01:12.198Z,62.60
2018-05-04T21:03:40.275Z,62.60
2018-05-04T21:06:07.627Z,62.40
2018-05-04T21:08:34.938Z,62.50
2018-05-04T21:11:02.305Z,62.40
2018-05-04T21:13:29.670Z,62.30
2018-05-04T21:15:57.758Z,62.30
2018-05-04T21:18:25.130Z,62.30
2018-05-04T21:20:52.469Z,62.20
2018-05-04T21:23:19.786Z,62.20
2018-05-04T21:25:47.223Z,62.10
2018-05-04T21:28:14.535Z,62.00
2018-05-04T21:30:41.853Z,62.00
2018-05-04T21:33:10.000Z,62.40
2018-05-04T21:35:37.325Z,62.00
2018-05-04T21:38:04.673Z,61.90
2018-05-04T21:40:31.986Z,61.90
2018-05-04T21:43:00.102Z,61.90
2018-05-04T21:45:27.452Z,61.90
2018-05-04T21:47:54.820Z,61.90
2018-05-04T21:50:22.156Z,61.90
2018-05-04T21:52:49.483Z,61.90
2018-05-04T21:55:17.706Z,61.90
2018-05-04T21:57:45.034Z,61.90
2018-05-04T22:00:12.366Z,62.00
2018-05-04T22:02:40.446Z,62.00
2018-05-04T22:05:08.088Z,62.00
2018-05-04T22:07:36.203Z,62.00
2018-05-04T22:10:03.565Z,62.00
2018-05-04T22:12:30.895Z,62.10
2018-05-04T22:14:58.278Z,62.00
2018-05-04T22:17:25.663Z,62.00
2018-05-04T22:19:53.016Z,62.00
2018-05-04T22:22:21.153Z,61.90
2018-05-04T22:24:48.493Z,61.80
2018-05-04T22:27:15.848Z,61.90
2018-05-04T22:29:43.185Z,61.80
2018-05-04T22:32:10.561Z,61.80
2018-05-04T22:34:37.939Z,61.70
2018-05-04T22:37:05.285Z,61.60
2018-05-04T22:39:33.409Z,61.50
2018-05-04T22:42:00.753Z,61.50
2018-05-04T22:44:28.127Z,61.40
2018-05-04T22:46:55.480Z,61.40
2018-05-04T22:49:22.802Z,61.40
2018-05-04T22:51:50.908Z,61.60
2018-05-04T22:54:18.264Z,61.30
2018-05-04T22:56:45.586Z,61.20
2018-05-04T22:59:13.696Z,61.10
2018-05-04T23:01:41.010Z,61.10
2018-05-04T23:04:09.107Z,61.00
2018-05-04T23:06:36.478Z,60.90
2018-05-04T23:09:04.884Z,60.90
2018-05-04T23:11:32.221Z,60.90
2018-05-04T23:13:59.554Z,61.70
2018-05-04T23:16:26.878Z,61.00
2018-05-04T23:18:54.998Z,60.90
2018-05-04T23:21:22.364Z,60.90
2018-05-04T23:23:49.569Z,60.90
2018-05-04T23:26:16.778Z,60.90
2018-05-04T23:28:43.984Z,60.90
2018-05-04T23:31:11.256Z,60.80
2018-05-04T23:33:38.487Z,60.80
2018-05-04T23:36:05.673Z,60.70
2018-05-04T23:38:32.864Z,60.70
2018-05-04T23:41:00.829Z,60.70
2018-05-04T23:43:28.795Z,60.60
2018-05-04T23:45:56.787Z,61.30
2018-05-04T23:48:24.019Z,60.60
2018-05-04T23:50:52.025Z,60.40
2018-05-04T23:53:19.225Z,60.40
2018-05-04T23:55:47.206Z,60.40
2018-05-04T23:58:15.243Z,60.40
